Midland International Airport
KMAF : rendu visible

Aérodrome :











RETROUVEZ-NOUS SUR...

 
LOGIN :

S'inscrire | Disclaimer

   EN    FR    IT 

 









Légende :    VFR   VFR Marginal   IFR   IFR Intensif   IFR Très Intensif
Visi : 
Plafond : 
>= 8 km
>= 3000ft
5 à 8 km
1000 à 3000 ft
1500m à 5 km
500 à 1000 ft
800 à 1500m
200 à 500 ft
< 800m
< 200 ft
Symboles :   Orages  Brouillard  Fortes neiges  Fortes précipitations  Vent > 20 kt






- Altitude de l'aérodrome : 2871 ft
- Code IATA : MAF


KMAF - Midland International

DERNIER METAR :
  • 242253Z 13017G25KT 10SM CLR 27/10 A2968 RMK AO2 PK WND 17029/2156 LTG DSNT ALQDS SLP007 T02670100

METARs EXPIRÉS :
  • 242153Z 17025G34KT 5SM HZ BKN110 27/12 A2970 RMK AO2 PK WND 17037/2143 SLP015 T02670122
  • 242131Z 19006KT 10SM VCTS SCT100 32/04 A2970 RMK AO2 LTG DSNT SE AND S T03220044
  • 242053Z VRB03G16KT 10SM CLR 33/06 A2971 RMK AO2 LTG DSNT SE SLP009 T03280061 58031

TAF KMAF
Valide du 24 à 22h jusqu'au 25 à 18h UTC


242134Z 2422/2518 14010G18KT P6SM SCT080 SCT250
TEMPO 2422/2424 VRB30G40KT 5SM TSRA BLDU BKN080CB
FM250000 17017G28KT P6SM SCT060
FM250600 14012KT P6SM FEW250
FM251200 12017G25KT P6SM FEW250
FIR KZFW / Amérique du Nord



MET'MAP, la Météo Aéronautique d'un coup d'oeil ! - Copyright ORBIFLY Décembre 2007 - Disclaimer

ORBIFLY MET'MAP TEAM :

Programmation & Développement : Alexandra Zaïnal
Sur une idée originale de : Baudouin d'Aumeries
Assistance à la programmation : Marc-Olivier Méhu
Soutien technique & logistique : Manuel Goepfert

Contact : metmap@orbifly.com




SOURCES & CREDITS :

   NOAA       Earth
Advisory